»·PEaware :: N143VT KBIL-KEGE

N143VT :: KBIL-KEGE

FLIGHT INFORMATION

Flight Status: Arrived
Operator: Privately registered:
United States
More flights under this callsign
Pilot: Anonymous 16492 (16492)
Aircraft: BOMBARDIER BD-100 CHALLENGER 300
(CL30)
More flights by this aircraft type
Origin: KBIL Billings Logan Intl
United States
Destination: KEGE Eagle Co Regl
United States
More flights between these airports :: More routes between these airports
Route: BIL5 BOY CKW RLG
File this flight plan on PilotEdge
Remarks:
Altitude:
(Current/Filed)
27,000ft
Speed:
(Current/Filed)
440kts
Departed: 10-Jul-18 06:02 PM
Arrived: 10-Jul-18 07:12 PM
Distance/Time
Traveled:
377nm/1:09
Distance/Time
To Go:
Arrived

Flight Plot

Page will automatically refresh every two minutes.

Flight plan parsing failed; only flown route is shown


Map Options




Map Legend


Flown Route
Filed Route
Departure Airport
Arrival Airport
Navaid (VOR, NDB)
Fix

Horizontal Profiles

Position Reports

Time Latitude Longitude Heading Altitude Ground
Speed
10-Jul-18 17:48 45.804286 -108.539874 6 3658ft 0kts
10-Jul-18 17:49 45.804286 -108.539874 6 3658ft 0kts
10-Jul-18 17:50 45.804286 -108.539874 6 3658ft 0kts
10-Jul-18 17:51 45.804286 -108.539874 6 3658ft 0kts
10-Jul-18 17:52 45.804286 -108.539874 6 3658ft 0kts
10-Jul-18 17:53 45.804286 -108.539874 6 3658ft 0kts
10-Jul-18 17:54 45.804286 -108.539874 6 3658ft 0kts
10-Jul-18 17:55 45.804286 -108.539874 6 3658ft 0kts
10-Jul-18 17:56 45.804286 -108.539874 6 3658ft 0kts
10-Jul-18 17:57 45.804934 -108.539888 6 3658ft 11kts
10-Jul-18 17:58 45.805783 -108.536811 114 3657ft 3kts
10-Jul-18 17:59 45.804747 -108.530618 100 3658ft 18kts
10-Jul-18 18:00 45.802099 -108.521085 116 3658ft 32kts
10-Jul-18 18:01 45.801194 -108.517435 59 3658ft 0kts
10-Jul-18 18:02 45.802230 -108.517198 294 3657ft 16kts
10-Jul-18 18:03 45.810472 -108.547198 292 4199ft 180kts
10-Jul-18 18:04 45.827197 -108.615949 292 7184ft 228kts
10-Jul-18 18:05 45.850816 -108.699788 291 10401ft 236kts
10-Jul-18 18:06 45.879207 -108.786683 291 12643ft 248kts
10-Jul-18 18:07 45.909826 -108.875738 292 14853ft 254kts
10-Jul-18 18:08 45.897534 -108.961273 195 16464ft 270kts
10-Jul-18 18:09 45.821092 -108.943736 174 18377ft 286kts
10-Jul-18 18:10 45.742478 -108.921974 174 20216ft 292kts
10-Jul-18 18:11 45.662961 -108.899624 174 21903ft 299kts
10-Jul-18 18:12 45.580996 -108.876493 175 24730ft 309kts
10-Jul-18 18:13 45.496503 -108.852712 175 26954ft 330kts
10-Jul-18 18:14 45.397462 -108.824978 174 26987ft 406kts
10-Jul-18 18:15 45.279922 -108.791999 173 27042ft 459kts
10-Jul-18 18:16 45.159164 -108.758172 173 27041ft 429kts
10-Jul-18 18:17 45.045007 -108.726494 173 27041ft 410kts
10-Jul-18 18:18 44.934519 -108.695953 171 27044ft 401kts
10-Jul-18 18:19 44.829069 -108.666828 171 27047ft 395kts
10-Jul-18 18:20 44.722304 -108.637492 171 27047ft 391kts
10-Jul-18 18:21 44.616367 -108.608500 171 27046ft 388kts
10-Jul-18 18:22 44.511013 -108.579775 171 27032ft 386kts
10-Jul-18 18:23 44.406182 -108.551299 171 27014ft 384kts
10-Jul-18 18:24 44.301653 -108.523013 171 27004ft 387kts
10-Jul-18 18:25 44.194744 -108.494189 171 26992ft 398kts
10-Jul-18 18:26 44.085104 -108.464735 171 26995ft 408kts
10-Jul-18 18:27 43.972831 -108.434683 171 27011ft 418kts
10-Jul-18 18:28 43.858351 -108.404166 171 27013ft 426kts
10-Jul-18 18:29 43.741473 -108.373133 171 27012ft 433kts
10-Jul-18 18:30 43.624685 -108.342241 172 27037ft 436kts
10-Jul-18 18:31 43.506017 -108.310974 172 27123ft 437kts
10-Jul-18 18:32 43.388976 -108.266949 166 27127ft 441kts
10-Jul-18 18:33 43.271784 -108.217043 165 27126ft 443kts
10-Jul-18 18:34 43.155038 -108.167080 165 27126ft 444kts
10-Jul-18 18:35 43.037656 -108.116953 165 27126ft 445kts
10-Jul-18 18:36 42.919982 -108.066932 164 27126ft 444kts
10-Jul-18 18:37 42.803660 -108.017603 164 27128ft 443kts
10-Jul-18 18:38 42.686464 -107.968111 164 27128ft 443kts
10-Jul-18 18:39 42.569214 -107.918806 164 27128ft 442kts
10-Jul-18 18:40 42.452869 -107.870072 164 27162ft 441kts
10-Jul-18 18:41 42.336421 -107.821490 164 27222ft 439kts
10-Jul-18 18:42 42.219837 -107.773034 164 27246ft 439kts
10-Jul-18 18:43 42.103243 -107.724765 164 27246ft 439kts
10-Jul-18 18:44 41.986947 -107.676803 164 27246ft 440kts
10-Jul-18 18:45 41.870464 -107.628947 164 27249ft 440kts
10-Jul-18 18:46 41.754226 -107.578557 156 27245ft 442kts
10-Jul-18 18:47 41.644052 -107.506862 155 27248ft 442kts
10-Jul-18 18:48 41.534258 -107.434149 155 27258ft 442kts
10-Jul-18 18:49 41.425251 -107.361921 154 27265ft 442kts
10-Jul-18 18:50 41.321953 -107.293672 155 27277ft 442kts
10-Jul-18 18:51 41.213293 -107.222127 155 27293ft 442kts
10-Jul-18 18:52 41.104742 -107.150917 155 27295ft 442kts
10-Jul-18 18:53 40.997286 -107.080666 155 25490ft 442kts
10-Jul-18 18:54 40.893181 -107.012856 156 24280ft 408kts
10-Jul-18 18:55 40.794054 -106.949603 158 22925ft 397kts
10-Jul-18 18:56 40.695031 -106.896978 150 21383ft 385kts
10-Jul-18 18:57 40.601375 -106.833452 151 19871ft 375kts
10-Jul-18 18:58 40.510038 -106.772956 151 18292ft 366kts
10-Jul-18 18:59 40.420023 -106.713841 151 16570ft 358kts
10-Jul-18 19:00 40.332301 -106.656493 151 15286ft 351kts
10-Jul-18 19:01 40.243080 -106.598320 151 14935ft 364kts
10-Jul-18 19:02 40.152603 -106.539532 151 14941ft 363kts
10-Jul-18 19:03 40.062564 -106.481204 151 14983ft 362kts
10-Jul-18 19:04 39.966969 -106.466265 191 15005ft 366kts
10-Jul-18 19:05 39.872266 -106.499958 194 13805ft 347kts
10-Jul-18 19:06 39.788018 -106.533713 195 13777ft 293kts
10-Jul-18 19:07 39.714125 -106.564166 195 12921ft 277kts
10-Jul-18 19:08 39.680489 -106.632926 261 12710ft 224kts
10-Jul-18 19:09 39.668579 -106.712081 259 11500ft 223kts
10-Jul-18 19:10 39.659690 -106.789893 262 10286ft 216kts
10-Jul-18 19:11 39.649554 -106.859840 257 8156ft 194kts
10-Jul-18 19:12 39.642772 -106.915969 260 6552ft 132kts
10-Jul-18 19:13 39.640400 -106.928395 78 6552ft 13kts
10-Jul-18 19:14 39.640997 -106.922889 86 6551ft 19kts
10-Jul-18 19:15 39.641235 -106.914994 73 6551ft 26kts
10-Jul-18 19:16 39.641400 -106.914465 61 6550ft 0kts
10-Jul-18 19:17 39.641398 -106.914465 59 6548ft 0kts

Navigation Log

Ident Type
Flight plan parsing failed, navigation log unavailable